createdAt,value
2022-08-22T00:05:24.035Z,49.3
2022-08-22T00:07:28.674Z,49.2
2022-08-22T00:09:33.229Z,49.29
2022-08-22T00:11:37.763Z,49.32
2022-08-22T00:13:42.307Z,49.4
2022-08-22T00:15:46.800Z,49.22
2022-08-22T00:17:51.343Z,49.41
2022-08-22T00:19:55.840Z,49.51
2022-08-22T00:22:00.469Z,49.48
2022-08-22T00:24:05.114Z,49.54
2022-08-22T00:26:09.683Z,49.59
2022-08-22T00:28:14.192Z,49.57
2022-08-22T00:30:18.767Z,49.59
2022-08-22T00:32:23.391Z,49.66
2022-08-22T00:34:28.530Z,49.76
2022-08-22T00:36:33.147Z,49.84
2022-08-22T00:38:37.711Z,49.91
2022-08-22T00:40:42.264Z,49.93
2022-08-22T00:42:47.011Z,49.99
2022-08-22T00:44:51.785Z,50.03
2022-08-22T00:46:56.338Z,49.98
2022-08-22T00:49:00.915Z,49.98
2022-08-22T00:51:05.424Z,49.98
2022-08-22T00:53:09.997Z,49.99
2022-08-22T00:55:14.639Z,50.06
2022-08-22T00:57:19.357Z,50.01
2022-08-22T00:59:25.766Z,49.96
2022-08-22T01:01:30.641Z,49.85
2022-08-22T01:03:35.267Z,49.82
2022-08-22T01:05:39.885Z,49.78
2022-08-22T01:07:44.511Z,49.5
2022-08-22T01:09:49.085Z,49.61
2022-08-22T01:11:53.709Z,49.53
2022-08-22T01:13:58.234Z,49.38
2022-08-22T01:16:02.753Z,49.38
2022-08-22T01:18:07.417Z,49.25
2022-08-22T01:20:11.973Z,49.21
2022-08-22T01:22:16.449Z,49.18
2022-08-22T01:24:21.496Z,49.16
2022-08-22T01:26:30.615Z,49.02
2022-08-22T01:28:35.327Z,49.24
2022-08-22T01:30:39.910Z,49.2
2022-08-22T01:32:44.367Z,48.61
2022-08-22T01:34:48.952Z,49.1
2022-08-22T01:36:53.508Z,49.03
2022-08-22T01:38:58.005Z,48.91
2022-08-22T01:41:03.355Z,48.86
2022-08-22T01:43:08.991Z,48.83
2022-08-22T01:45:13.633Z,48.77
2022-08-22T01:47:18.235Z,48.49
2022-08-22T01:49:22.872Z,48.74
2022-08-22T01:51:27.496Z,48.19
2022-08-22T01:53:32.052Z,48.59
2022-08-22T01:55:36.564Z,48.63
2022-08-22T01:57:41.154Z,48.54
2022-08-22T01:59:45.875Z,48.47
2022-08-22T02:01:50.343Z,48.63
2022-08-22T02:03:56.492Z,48.64
2022-08-22T02:06:01.171Z,48.58
2022-08-22T02:08:05.757Z,48.47
2022-08-22T02:10:10.272Z,48.32
2022-08-22T02:12:23.951Z,48.41
2022-08-22T02:14:28.524Z,48.37
2022-08-22T02:16:33.063Z,48.34
2022-08-22T02:18:37.651Z,48.3
2022-08-22T02:20:42.159Z,48.41
2022-08-22T02:22:46.963Z,48.45
2022-08-22T02:24:51.546Z,48.55
2022-08-22T02:26:56.029Z,48.62
2022-08-22T02:29:00.688Z,48.55
2022-08-22T02:31:05.215Z,48.67
2022-08-22T02:33:09.951Z,48.46
2022-08-22T02:35:14.533Z,48.56
2022-08-22T02:37:19.131Z,48.49
2022-08-22T02:39:23.815Z,48.54
2022-08-22T02:41:32.081Z,48.56
2022-08-22T02:43:36.602Z,48.5
2022-08-22T02:45:41.261Z,48.65
2022-08-22T02:47:45.847Z,48.52
2022-08-22T02:49:52.757Z,48.64
2022-08-22T02:51:57.239Z,48.57
2022-08-22T02:54:01.796Z,48.5
2022-08-22T02:56:06.375Z,48.54
2022-08-22T02:58:10.925Z,48.39
2022-08-22T03:00:34.449Z,48.52
2022-08-22T03:02:39.228Z,48.58
2022-08-22T03:04:43.845Z,48.47
2022-08-22T03:06:48.467Z,48.53
2022-08-22T03:08:53.085Z,48.47
2022-08-22T03:10:57.713Z,48.49
2022-08-22T03:13:02.190Z,48.5
2022-08-22T03:15:06.852Z,48.54
2022-08-22T03:17:11.475Z,48.37
2022-08-22T03:19:20.808Z,48.46
2022-08-22T03:21:25.419Z,48.51
2022-08-22T03:23:30.147Z,48.46
2022-08-22T03:25:34.769Z,48.43
2022-08-22T03:27:39.391Z,48.34
2022-08-22T03:29:43.969Z,48.32
2022-08-22T03:31:48.584Z,47.89
2022-08-22T03:33:53.123Z,48.17
2022-08-22T03:35:57.773Z,48.27
2022-08-22T03:38:02.604Z,48.36
2022-08-22T03:40:07.431Z,48.34
2022-08-22T03:42:12.079Z,48.33
2022-08-22T03:44:16.618Z,48.34
2022-08-22T03:46:21.155Z,48.17
2022-08-22T03:48:25.635Z,48.1
2022-08-22T03:50:30.174Z,48.37
2022-08-22T03:52:34.715Z,48.3
2022-08-22T03:54:39.231Z,48.13
2022-08-22T03:56:43.882Z,48.25
2022-08-22T03:58:48.498Z,48.25
2022-08-22T04:00:58.401Z,48.32
2022-08-22T04:03:03.018Z,48.1
2022-08-22T04:05:11.616Z,48.31
2022-08-22T04:07:34.563Z,48.26
2022-08-22T04:09:40.541Z,48.25
2022-08-22T04:11:45.047Z,48.3
2022-08-22T04:13:49.609Z,48.07
2022-08-22T04:15:54.195Z,48.21
2022-08-22T04:18:00.155Z,48.03
2022-08-22T04:20:04.919Z,48.12
2022-08-22T04:22:09.647Z,47.95
2022-08-22T04:24:14.242Z,47.89
2022-08-22T04:26:18.827Z,48.06
2022-08-22T04:28:23.406Z,48.11
2022-08-22T04:30:28.027Z,48.03
2022-08-22T04:32:32.651Z,48.07
2022-08-22T04:34:37.226Z,48.01
2022-08-22T04:36:41.833Z,47.96
2022-08-22T04:38:46.407Z,47.92
2022-08-22T04:40:50.899Z,47.96
2022-08-22T04:42:55.479Z,48.09
2022-08-22T04:45:00.083Z,47.79
2022-08-22T04:47:04.649Z,47.8
2022-08-22T04:49:09.291Z,48.06
2022-08-22T04:51:13.906Z,48.06
2022-08-22T04:53:18.657Z,48.16
2022-08-22T04:55:23.267Z,48.21
2022-08-22T04:57:27.875Z,48.2
2022-08-22T04:59:35.589Z,48.19
2022-08-22T05:01:40.472Z,48.24
2022-08-22T05:03:47.165Z,48.19
2022-08-22T05:05:51.809Z,48.29
2022-08-22T05:07:57.874Z,48.33
2022-08-22T05:10:13.947Z,48.35
2022-08-22T05:12:18.676Z,48.3
2022-08-22T05:14:23.195Z,48.3
2022-08-22T05:16:27.918Z,48.37
2022-08-22T05:18:32.509Z,48.36
2022-08-22T05:20:37.160Z,48.36
2022-08-22T05:22:41.761Z,48.22
2022-08-22T05:24:46.399Z,48.26
2022-08-22T05:26:50.921Z,48.33
2022-08-22T05:28:55.796Z,48.29
2022-08-22T05:31:00.572Z,48.23
2022-08-22T05:33:05.162Z,48.17
2022-08-22T05:35:09.677Z,48.11
2022-08-22T05:37:14.342Z,48.08
2022-08-22T05:39:18.959Z,48.11
2022-08-22T05:41:23.678Z,48.14
2022-08-22T05:43:28.259Z,48.12
2022-08-22T05:45:32.817Z,48.07
2022-08-22T05:47:37.449Z,48.13
2022-08-22T05:49:42.027Z,48.18
2022-08-22T05:51:46.515Z,48.15
2022-08-22T05:53:51.099Z,48.15
2022-08-22T05:55:55.695Z,48.11
2022-08-22T05:58:00.651Z,48.06
2022-08-22T06:00:05.268Z,48.1
2022-08-22T06:02:10.373Z,48.09
2022-08-22T06:04:14.992Z,47.69
2022-08-22T06:06:19.597Z,48.02
2022-08-22T06:08:24.181Z,47.98
2022-08-22T06:10:28.841Z,47.99
2022-08-22T06:12:36.069Z,48.06
2022-08-22T06:14:42.511Z,47.94
2022-08-22T06:16:50.939Z,48.04
2022-08-22T06:18:55.561Z,48.08
2022-08-22T06:21:00.050Z,48.08
2022-08-22T06:23:04.705Z,48
2022-08-22T06:25:09.399Z,48.05
2022-08-22T06:27:14.158Z,47.83
2022-08-22T06:29:18.774Z,48.09
2022-08-22T06:31:23.496Z,47.94
2022-08-22T06:33:28.120Z,47.65
2022-08-22T06:35:32.840Z,48.14
2022-08-22T06:37:37.430Z,48.16
2022-08-22T06:39:42.114Z,48.18
2022-08-22T06:41:46.758Z,47.97
2022-08-22T06:43:51.320Z,48.05
2022-08-22T06:45:55.924Z,48.26
2022-08-22T06:48:03.806Z,48.09
2022-08-22T06:50:15.631Z,48.25
2022-08-22T06:52:20.348Z,48.23
2022-08-22T06:54:24.979Z,48.03
2022-08-22T06:56:29.803Z,48.32
2022-08-22T06:58:36.576Z,48.23
2022-08-22T07:00:41.228Z,48.31
2022-08-22T07:02:45.835Z,48.3
2022-08-22T07:04:50.439Z,48.27
2022-08-22T07:06:55.059Z,48.38
2022-08-22T07:08:59.576Z,48.26
2022-08-22T07:11:10.276Z,48.32
2022-08-22T07:13:14.836Z,48.38
2022-08-22T07:15:19.482Z,48.39
2022-08-22T07:17:24.107Z,48.22
2022-08-22T07:19:28.701Z,48.5
2022-08-22T07:21:38.296Z,48.46
2022-08-22T07:23:44.116Z,48.55
2022-08-22T07:25:48.684Z,48.57
2022-08-22T07:27:53.291Z,48.75
2022-08-22T07:29:58.011Z,48.73
2022-08-22T07:32:02.596Z,48.77
2022-08-22T07:34:07.208Z,48.71
2022-08-22T07:36:11.679Z,48.83
2022-08-22T07:38:16.335Z,48.85
2022-08-22T07:40:21.276Z,48.87
2022-08-22T07:42:31.414Z,48.96
2022-08-22T07:44:36.063Z,49.01
2022-08-22T07:46:40.660Z,49.06
2022-08-22T07:49:11.119Z,49.08
2022-08-22T07:51:15.663Z,48.99
2022-08-22T07:53:20.170Z,49.04
2022-08-22T07:55:24.716Z,49
2022-08-22T07:57:32.048Z,48.95
2022-08-22T07:59:36.658Z,48.89
2022-08-22T08:01:41.334Z,48.78
2022-08-22T08:03:46.117Z,48.78
2022-08-22T08:05:50.638Z,48.71
2022-08-22T08:07:55.378Z,48.75
2022-08-22T08:09:59.964Z,49.01
2022-08-22T08:12:04.489Z,49.14
2022-08-22T08:14:14.707Z,49.23
2022-08-22T08:16:19.262Z,49.26
2022-08-22T08:18:23.997Z,49.23
2022-08-22T08:20:28.718Z,49.2
2022-08-22T08:22:33.344Z,49.13
2022-08-22T08:24:46.802Z,49.09
2022-08-22T08:26:51.564Z,49.11
2022-08-22T08:28:56.110Z,49.06
2022-08-22T08:31:00.718Z,49.06
2022-08-22T08:33:28.184Z,49.05
2022-08-22T08:36:04.504Z,49.09
2022-08-22T08:38:09.025Z,49.14
2022-08-22T08:40:13.996Z,49.14
2022-08-22T08:42:18.652Z,49.19
2022-08-22T08:44:23.202Z,49.19
2022-08-22T08:46:29.028Z,49.25
2022-08-22T08:48:34.380Z,49.3
2022-08-22T08:50:38.780Z,49.29
2022-08-22T08:52:43.571Z,49.28
2022-08-22T08:54:50.650Z,49.21
2022-08-22T08:56:56.507Z,49.16
2022-08-22T08:59:00.976Z,49.06
2022-08-22T09:01:07.297Z,49
2022-08-22T09:03:19.651Z,49.01
2022-08-22T09:05:28.593Z,49.06
2022-08-22T09:07:36.189Z,49.13
2022-08-22T09:09:42.156Z,49.16
2022-08-22T09:11:52.943Z,49.25
2022-08-22T09:13:57.495Z,49.35
2022-08-22T09:16:10.947Z,49.38
2022-08-22T09:18:21.465Z,49.4
2022-08-22T09:20:28.341Z,49.4
2022-08-22T09:40:28.635Z,49.01
2022-08-22T09:42:33.457Z,49.02
2022-08-22T09:44:44.837Z,49.1
2022-08-22T09:46:50.205Z,49.29
2022-08-22T09:48:55.622Z,49.35
2022-08-22T09:51:34.024Z,49.51
2022-08-22T09:53:38.734Z,49.49
2022-08-22T09:55:43.674Z,49.55
2022-08-22T09:57:49.337Z,49.61
2022-08-22T09:59:59.171Z,49.63
2022-08-22T10:02:03.685Z,49.6
2022-08-22T10:04:11.076Z,49.57
2022-08-22T10:06:18.419Z,49.61
2022-08-22T10:08:28.618Z,49.63
2022-08-22T10:10:33.224Z,49.68
2022-08-22T10:12:38.590Z,49.75
2022-08-22T10:14:53.157Z,49.86
2022-08-22T10:16:57.679Z,49.91
2022-08-22T10:19:06.193Z,49.98
2022-08-22T10:21:10.772Z,50.02
2022-08-22T10:23:16.693Z,50.01
2022-08-22T10:25:26.160Z,49.99
2022-08-22T10:27:33.078Z,50.01
2022-08-22T10:29:37.998Z,50.05
2022-08-22T10:32:10.844Z,50.01
2022-08-22T10:34:21.046Z,50.04
2022-08-22T10:36:28.449Z,50.02
2022-08-22T10:38:44.137Z,50
2022-08-22T10:40:51.038Z,50.01
2022-08-22T10:43:00.332Z,49.97
2022-08-22T10:45:05.600Z,49.96
2022-08-22T10:47:10.120Z,49.96
2022-08-22T10:49:23.495Z,50.05
2022-08-22T10:51:34.280Z,50.11
2022-08-22T10:53:41.959Z,50.1
2022-08-22T10:55:47.861Z,50.18
2022-08-22T10:57:55.809Z,50.23
2022-08-22T11:00:00.785Z,50.26
2022-08-22T11:02:05.552Z,50.33
2022-08-22T11:04:14.351Z,50.41
2022-08-22T11:06:18.921Z,50.45
2022-08-22T11:08:26.638Z,50.53
2022-08-22T11:10:35.898Z,50.61
2022-08-22T11:12:45.564Z,50.68
2022-08-22T11:14:50.541Z,50.71
2022-08-22T11:16:57.496Z,50.76
2022-08-22T11:19:16.695Z,50.66
2022-08-22T11:21:22.745Z,50.72
2022-08-22T11:23:27.957Z,50.69
2022-08-22T11:25:41.069Z,50.68
2022-08-22T11:27:45.715Z,50.65
2022-08-22T11:29:53.095Z,50.65
2022-08-22T11:32:08.978Z,50.6
2022-08-22T11:34:14.055Z,50.49
2022-08-22T11:36:30.985Z,50.41
2022-08-22T11:38:38.181Z,50.41
2022-08-22T11:40:43.805Z,50.43
2022-08-22T11:43:04.164Z,50.39
2022-08-22T11:45:09.075Z,50.32
2022-08-22T11:47:14.752Z,50.33
2022-08-22T11:49:26.809Z,50.37
2022-08-22T11:51:36.817Z,50.29
2022-08-22T11:53:42.534Z,50.3
2022-08-22T11:55:48.035Z,50.42
2022-08-22T11:57:53.059Z,50.56
2022-08-22T11:59:58.144Z,50.57
2022-08-22T12:02:09.821Z,50.64
2022-08-22T12:04:15.135Z,50.71
2022-08-22T12:06:19.957Z,50.7
2022-08-22T12:08:25.066Z,50.7
2022-08-22T12:10:29.611Z,50.75
2022-08-22T12:12:34.259Z,50.75
2022-08-22T12:14:43.755Z,50.77
2022-08-22T12:16:49.560Z,50.83
2022-08-22T12:18:55.117Z,50.85
2022-08-22T12:21:00.499Z,50.89
2022-08-22T12:23:07.275Z,50.91
2022-08-22T12:25:12.101Z,50.96
2022-08-22T12:27:31.311Z,50.97
2022-08-22T12:29:46.633Z,50.97
2022-08-22T12:31:51.819Z,50.98
2022-08-22T12:33:56.501Z,50.97
2022-08-22T12:36:01.121Z,51.04
2022-08-22T12:38:37.796Z,50.99
2022-08-22T12:40:46.436Z,51.11
2022-08-22T12:42:52.822Z,51.09
2022-08-22T12:44:57.488Z,51.11
2022-08-22T12:47:06.236Z,51.15
2022-08-22T12:49:13.757Z,51.24
2022-08-22T12:51:20.464Z,51.22
2022-08-22T12:53:25.078Z,51.16
2022-08-22T12:55:30.042Z,51.2
2022-08-22T12:57:34.914Z,51.18
2022-08-22T12:59:39.576Z,51.17
2022-08-22T13:01:46.700Z,51.22
2022-08-22T13:03:51.375Z,51.26
2022-08-22T13:06:01.729Z,51.25
2022-08-22T13:08:07.919Z,51.34
2022-08-22T13:10:18.380Z,51.38
2022-08-22T13:12:23.189Z,51.44
2022-08-22T13:14:28.225Z,51.48
2022-08-22T13:16:33.017Z,51.74
2022-08-22T13:18:38.328Z,51.67
2022-08-22T13:20:49.492Z,51.66
2022-08-22T13:22:58.046Z,51.59
2022-08-22T13:25:09.657Z,51.6
2022-08-22T13:27:21.345Z,51.66
2022-08-22T13:29:42.549Z,51.67
2022-08-22T13:31:52.246Z,51.68
2022-08-22T13:34:03.095Z,51.68
2022-08-22T13:36:07.674Z,51.72
2022-08-22T13:38:15.550Z,51.71
2022-08-22T13:40:30.050Z,51.61
2022-08-22T13:42:34.595Z,51.41
2022-08-22T13:44:44.933Z,51.31
2022-08-22T13:47:16.092Z,51.33
2022-08-22T13:49:25.070Z,51.29
2022-08-22T13:51:32.358Z,51.29
2022-08-22T13:53:36.974Z,51.39
2022-08-22T13:55:49.959Z,51.36
2022-08-22T13:57:54.976Z,51.33
2022-08-22T14:00:08.468Z,51.42
2022-08-22T14:02:23.353Z,51.9
2022-08-22T14:04:37.866Z,52.29
2022-08-22T14:06:46.011Z,52.18
2022-08-22T14:08:50.558Z,52.45
2022-08-22T14:11:03.870Z,52.18
2022-08-22T14:13:11.415Z,52.23
2022-08-22T14:15:15.931Z,52.23
2022-08-22T14:17:22.018Z,51.97
2022-08-22T14:19:29.305Z,52.14
2022-08-22T14:21:42.489Z,52.27
2022-08-22T14:23:47.868Z,52.41
2022-08-22T14:25:53.634Z,52.37
2022-08-22T14:27:59.642Z,52.53
2022-08-22T14:30:06.975Z,52.56
2022-08-22T14:32:13.399Z,55.09
2022-08-22T14:34:17.960Z,55.2
2022-08-22T14:36:24.223Z,57.11
2022-08-22T14:38:32.707Z,57.08
2022-08-22T14:40:37.392Z,56.84
2022-08-22T14:42:46.423Z,56.83
2022-08-22T14:44:52.774Z,56.36
2022-08-22T14:46:57.755Z,56
2022-08-22T14:49:03.083Z,55.65
2022-08-22T14:51:10.558Z,54.87
2022-08-22T14:53:15.106Z,54.58
2022-08-22T14:55:19.987Z,54.1
2022-08-22T14:57:24.603Z,53.67
2022-08-22T14:59:30.504Z,53.52
2022-08-22T15:01:38.306Z,53.43
2022-08-22T15:03:44.853Z,53.44
2022-08-22T15:05:51.115Z,53.26
2022-08-22T15:07:57.291Z,53.09
2022-08-22T15:10:07.169Z,53.01
2022-08-22T15:12:16.297Z,52.92
2022-08-22T15:14:20.997Z,52.9
2022-08-22T15:16:25.639Z,52.9
2022-08-22T15:18:32.740Z,52.88
2022-08-22T15:20:53.162Z,52.9
2022-08-22T15:22:58.024Z,52.82
2022-08-22T15:25:04.271Z,52.77
2022-08-22T15:27:10.091Z,52.83
2022-08-22T15:29:16.572Z,53.07
2022-08-22T15:31:23.777Z,52.97
2022-08-22T15:33:31.478Z,53.12
2022-08-22T15:35:40.921Z,53.07
2022-08-22T15:37:45.665Z,53.25
2022-08-22T15:39:54.731Z,53.56
2022-08-22T15:42:00.424Z,53.86
2022-08-22T15:44:06.329Z,54.06
2022-08-22T15:46:19.091Z,54.28
2022-08-22T15:48:23.974Z,54.51
2022-08-22T15:50:28.826Z,54.44
2022-08-22T15:52:34.147Z,54.64
2022-08-22T15:54:51.080Z,55.25
2022-08-22T15:56:56.582Z,55.49
2022-08-22T15:59:02.076Z,55.37
2022-08-22T16:01:23.233Z,55.35
2022-08-22T16:03:28.655Z,55.33
2022-08-22T16:05:33.345Z,55.48
2022-08-22T16:07:37.865Z,55.37
2022-08-22T16:09:45.576Z,55.36
2022-08-22T16:11:50.184Z,55.31
2022-08-22T16:14:00.000Z,55.28
2022-08-22T16:16:04.855Z,55.24
2022-08-22T16:18:09.364Z,55.36
2022-08-22T16:20:22.078Z,55.51
2022-08-22T16:22:26.614Z,55.47
2022-08-22T16:24:36.813Z,55.48
2022-08-22T16:26:41.437Z,55.58
2022-08-22T16:29:00.535Z,55.68
2022-08-22T16:31:05.051Z,55.62
2022-08-22T16:33:20.028Z,55.72
2022-08-22T16:35:24.745Z,55.87
2022-08-22T16:37:29.577Z,55.83
2022-08-22T16:39:34.305Z,55.71
2022-08-22T16:41:38.908Z,55.78
2022-08-22T16:43:57.278Z,55.6
2022-08-22T16:46:01.899Z,55.7
2022-08-22T16:48:07.086Z,55.76
2022-08-22T16:50:11.841Z,55.79
2022-08-22T16:52:17.949Z,55.77
2022-08-22T16:54:22.497Z,55.92
2022-08-22T16:56:27.126Z,56
2022-08-22T16:59:19.518Z,55.89
2022-08-22T17:01:27.420Z,56.03
2022-08-22T17:03:31.956Z,56
2022-08-22T17:05:36.476Z,56.02
2022-08-22T17:07:41.036Z,56.03
2022-08-22T17:09:45.743Z,56.13
2022-08-22T17:11:50.483Z,56.21
2022-08-22T17:13:55.152Z,56.36
2022-08-22T17:15:59.689Z,56.31
2022-08-22T17:18:14.382Z,56.38
2022-08-22T17:20:18.913Z,56.32
2022-08-22T17:22:30.275Z,56.36
2022-08-22T17:24:36.347Z,56.4
2022-08-22T17:26:40.939Z,56.36
2022-08-22T17:28:45.571Z,56.47
2022-08-22T17:30:50.214Z,56.4
2022-08-22T17:33:02.104Z,56.53
2022-08-22T17:35:06.733Z,56.81
2022-08-22T17:37:11.550Z,57.06
2022-08-22T17:39:16.157Z,57.04
2022-08-22T17:41:21.973Z,57.04
2022-08-22T17:43:26.749Z,57.11
2022-08-22T17:45:31.469Z,57.07
2022-08-22T17:47:36.048Z,57.11
2022-08-22T17:49:40.816Z,56.95
2022-08-22T17:51:45.433Z,56.95
2022-08-22T17:53:50.027Z,57.04
2022-08-22T17:55:54.557Z,56.95
2022-08-22T17:57:59.626Z,57.19
2022-08-22T18:00:04.404Z,57.23
2022-08-22T18:02:09.627Z,57.06
2022-08-22T18:04:14.983Z,57.16
2022-08-22T18:06:19.629Z,57.02
2022-08-22T18:09:14.995Z,57.3
2022-08-22T18:11:19.662Z,57.28
2022-08-22T18:13:24.223Z,57.41
2022-08-22T18:15:28.783Z,57.63
2022-08-22T18:17:33.407Z,57.47
2022-08-22T18:19:38.039Z,57.58
2022-08-22T18:21:42.667Z,57.62
2022-08-22T18:23:50.151Z,57.8
2022-08-22T18:25:55.083Z,57.93
2022-08-22T18:28:00.597Z,58
2022-08-22T18:30:05.458Z,58.05
2022-08-22T18:32:13.241Z,57.99
2022-08-22T18:34:19.669Z,57.96
2022-08-22T18:36:25.304Z,57.82
2022-08-22T18:38:30.546Z,57.69
2022-08-22T18:40:35.217Z,57.76
2022-08-22T18:42:39.942Z,57.58
2022-08-22T18:44:44.459Z,57.75
2022-08-22T18:46:52.719Z,57.91
2022-08-22T18:49:17.298Z,57.89
2022-08-22T18:51:26.579Z,57.99
2022-08-22T18:53:31.316Z,58.05
2022-08-22T18:55:35.832Z,57.97
2022-08-22T18:57:44.567Z,57.88
2022-08-22T18:59:49.169Z,57.94
2022-08-22T19:01:54.122Z,57.96
2022-08-22T19:03:58.908Z,57.95
2022-08-22T19:06:03.563Z,58.33
2022-08-22T19:08:08.271Z,58.31
2022-08-22T19:10:12.929Z,58.35
2022-08-22T19:12:17.624Z,58.39
2022-08-22T19:14:22.238Z,58.38
2022-08-22T19:16:26.808Z,58.54
2022-08-22T19:18:31.375Z,58.53
2022-08-22T19:20:35.982Z,58.35
2022-08-22T19:22:40.686Z,58.45
2022-08-22T19:24:45.448Z,58.55
2022-08-22T19:26:50.153Z,58.49
2022-08-22T19:28:54.898Z,58.47
2022-08-22T19:30:59.955Z,58.34
2022-08-22T19:33:04.522Z,58.45
2022-08-22T19:35:09.109Z,58.45
2022-08-22T19:37:35.797Z,58.37
2022-08-22T19:39:43.493Z,58.43
2022-08-22T19:41:48.630Z,58.5
2022-08-22T19:43:53.229Z,58.45
2022-08-22T19:45:57.979Z,58.47
2022-08-22T19:48:02.568Z,58.36
2022-08-22T19:50:08.090Z,58.62
2022-08-22T19:52:12.885Z,58.62
2022-08-22T19:54:19.055Z,58.59
2022-08-22T19:56:23.776Z,58.68
2022-08-22T19:58:34.882Z,58.75
2022-08-22T20:00:39.505Z,58.86
2022-08-22T20:02:44.112Z,58.92
2022-08-22T20:04:48.655Z,58.96
2022-08-22T20:06:53.183Z,58.99
2022-08-22T20:08:57.672Z,59.03
2022-08-22T20:11:02.255Z,59.24
2022-08-22T20:13:08.635Z,59.3
2022-08-22T20:15:13.211Z,59.12
2022-08-22T20:17:17.948Z,59.12
2022-08-22T20:19:22.675Z,59.13
2022-08-22T20:21:29.788Z,59.13
2022-08-22T20:23:36.931Z,59.24
2022-08-22T20:25:45.956Z,59.2
2022-08-22T20:27:50.679Z,59.2
2022-08-22T20:29:55.414Z,59.36
2022-08-22T20:32:01.409Z,59.28
2022-08-22T20:34:05.989Z,59.41
2022-08-22T20:36:30.618Z,59.39
2022-08-22T20:38:35.288Z,59.45
2022-08-22T20:41:01.668Z,59.48
2022-08-22T20:43:13.475Z,59.39
2022-08-22T20:45:26.031Z,59.53
2022-08-22T20:47:49.472Z,59.38
2022-08-22T20:49:54.314Z,59.31
2022-08-22T20:51:58.910Z,59.36
2022-08-22T20:54:16.496Z,59.4
2022-08-22T20:56:21.277Z,59.4
2022-08-22T20:58:25.977Z,59.49
2022-08-22T21:00:30.631Z,59.56
2022-08-22T21:02:35.233Z,59.6
2022-08-22T21:04:44.750Z,59.67
2022-08-22T21:06:49.336Z,59.6
2022-08-22T21:08:53.874Z,59.61
2022-08-22T21:10:58.414Z,59.81
2022-08-22T21:13:03.135Z,60.02
2022-08-22T21:15:07.683Z,59.98
2022-08-22T21:17:12.332Z,60.16
2022-08-22T21:19:16.909Z,59.93
2022-08-22T21:21:21.610Z,59.63
2022-08-22T21:23:26.169Z,59.3
2022-08-22T21:25:30.788Z,59.75
2022-08-22T21:27:35.386Z,59.85
2022-08-22T21:29:40.028Z,59.71
2022-08-22T21:31:44.606Z,59.5
2022-08-22T21:33:49.272Z,59.33
2022-08-22T21:35:53.871Z,59.18
2022-08-22T21:38:02.729Z,59.12
2022-08-22T21:40:07.809Z,59
2022-08-22T21:42:20.000Z,58.94
2022-08-22T21:44:24.570Z,58.9
2022-08-22T21:46:29.195Z,58.83
2022-08-22T21:48:33.768Z,58.75
2022-08-22T21:50:38.380Z,58.7
2022-08-22T21:52:43.049Z,58.71
2022-08-22T21:54:47.974Z,58.67
2022-08-22T21:56:52.595Z,58.63
2022-08-22T21:58:59.414Z,58.58
2022-08-22T22:01:11.551Z,58.57
2022-08-22T22:03:19.052Z,58.52
2022-08-22T22:05:23.543Z,58.42
2022-08-22T22:07:28.145Z,58.34
2022-08-22T22:09:32.761Z,58.27
2022-08-22T22:11:37.243Z,58.32
2022-08-22T22:13:41.829Z,58.28
2022-08-22T22:15:46.342Z,58.25
2022-08-22T22:17:50.990Z,58.2
2022-08-22T22:19:55.559Z,58.17
2022-08-22T22:22:00.203Z,58.14
2022-08-22T22:24:04.819Z,58.09
2022-08-22T22:26:09.372Z,58.06
2022-08-22T22:28:13.964Z,58.05
2022-08-22T22:30:20.940Z,58.05
2022-08-22T22:32:26.509Z,58.02
2022-08-22T22:34:31.113Z,57.99
2022-08-22T22:36:35.906Z,57.98
2022-08-22T22:38:40.456Z,57.98
2022-08-22T22:40:45.200Z,57.98
2022-08-22T22:42:49.817Z,58.06
2022-08-22T22:44:54.439Z,58.07
2022-08-22T22:46:59.049Z,58
2022-08-22T22:49:03.783Z,57.97
2022-08-22T22:51:08.387Z,57.94
2022-08-22T22:53:21.343Z,57.91
2022-08-22T22:55:44.396Z,57.89
2022-08-22T22:57:52.799Z,57.88
2022-08-22T23:00:03.541Z,57.87
2022-08-22T23:02:08.164Z,57.86
2022-08-22T23:04:13.003Z,57.85
2022-08-22T23:06:17.709Z,57.88
2022-08-22T23:08:22.323Z,57.84
2022-08-22T23:10:26.953Z,57.84
2022-08-22T23:12:31.683Z,57.87
2022-08-22T23:14:36.399Z,57.88
2022-08-22T23:16:41.191Z,57.92
2022-08-22T23:18:45.745Z,57.95
2022-08-22T23:20:50.857Z,58.04
2022-08-22T23:22:55.467Z,58.08
2022-08-22T23:25:00.220Z,58.12
2022-08-22T23:27:04.943Z,58.15
2022-08-22T23:29:09.562Z,58.17
2022-08-22T23:31:14.183Z,58.17
2022-08-22T23:33:18.787Z,58.24
2022-08-22T23:35:23.421Z,58.2
2022-08-22T23:37:27.985Z,58.15
2022-08-22T23:39:32.563Z,58.08
2022-08-22T23:41:37.140Z,58.08
2022-08-22T23:43:41.756Z,58.05
2022-08-22T23:45:46.324Z,58.04
2022-08-22T23:47:50.921Z,58.08
2022-08-22T23:49:55.470Z,58.07
2022-08-22T23:52:00.014Z,58.08
2022-08-22T23:54:04.557Z,58.05
2022-08-22T23:56:20.390Z,58.03
2022-08-22T23:58:25.934Z,58.05
